createdAt,value
2023-12-10T00:00:12.997Z,976.53
2023-12-10T00:01:13.073Z,976.57
2023-12-10T00:02:12.986Z,976.59
2023-12-10T00:03:13.026Z,976.63
2023-12-10T00:04:12.972Z,976.76
2023-12-10T00:05:12.874Z,976.53
2023-12-10T00:06:14.581Z,976.56
2023-12-10T00:07:12.861Z,976.58
2023-12-10T00:08:12.857Z,976.60
2023-12-10T00:09:12.831Z,976.54
2023-12-10T00:10:12.828Z,976.73
2023-12-10T00:11:12.840Z,976.80
2023-12-10T00:12:12.803Z,976.78
2023-12-10T00:13:12.811Z,976.82
2023-12-10T00:14:12.813Z,976.76
2023-12-10T00:15:12.828Z,976.78
2023-12-10T00:16:12.728Z,976.76
2023-12-10T00:17:12.700Z,976.67
2023-12-10T00:18:12.817Z,976.72
2023-12-10T00:19:12.849Z,976.65
2023-12-10T00:20:12.675Z,976.58
2023-12-10T00:21:12.671Z,976.63
2023-12-10T00:22:12.655Z,976.53
2023-12-10T00:23:12.636Z,976.49
2023-12-10T00:24:12.677Z,976.41
2023-12-10T00:25:12.615Z,976.37
2023-12-10T00:26:12.585Z,976.32
2023-12-10T00:27:12.694Z,976.30
2023-12-10T00:28:12.557Z,976.27
2023-12-10T00:29:12.841Z,976.25
2023-12-10T00:30:12.570Z,976.22
2023-12-10T00:31:12.538Z,976.23
2023-12-10T00:32:12.508Z,976.21
2023-12-10T00:33:12.596Z,976.15
2023-12-10T00:34:12.630Z,976.10
2023-12-10T00:35:12.481Z,976.02
2023-12-10T00:36:12.488Z,976.12
2023-12-10T00:37:12.535Z,976.27
2023-12-10T00:38:12.431Z,976.28
2023-12-10T00:39:12.450Z,976.28
2023-12-10T00:40:12.424Z,976.21
2023-12-10T00:41:12.472Z,976.20
2023-12-10T00:42:12.448Z,976.30
2023-12-10T00:43:12.372Z,976.24
2023-12-10T00:44:12.386Z,976.24
2023-12-10T00:45:12.382Z,976.14
2023-12-10T00:46:12.346Z,976.33
2023-12-10T00:47:12.322Z,976.18
2023-12-10T00:48:12.392Z,976.17
2023-12-10T00:49:12.392Z,976.17
2023-12-10T00:50:12.291Z,976.19
2023-12-10T00:51:12.321Z,976.20
2023-12-10T00:52:12.286Z,976.23
2023-12-10T00:53:12.247Z,976.24
2023-12-10T00:54:13.531Z,976.18
2023-12-10T00:55:12.219Z,976.23
2023-12-10T00:56:12.197Z,976.19
2023-12-10T00:57:12.234Z,976.20
2023-12-10T00:58:12.200Z,976.21
2023-12-10T00:59:12.171Z,976.34
2023-12-10T01:00:13.800Z,976.32
2023-12-10T01:01:12.250Z,976.27
2023-12-10T01:02:12.106Z,976.34
2023-12-10T01:03:12.234Z,976.34
2023-12-10T01:04:12.259Z,976.37
2023-12-10T01:05:12.130Z,976.39
2023-12-10T01:06:12.123Z,976.42
2023-12-10T01:07:12.073Z,976.43
2023-12-10T01:08:12.082Z,976.40
2023-12-10T01:09:12.114Z,976.40
2023-12-10T01:10:12.043Z,976.41
2023-12-10T01:11:12.029Z,976.42
2023-12-10T01:12:12.029Z,976.42
2023-12-10T01:13:12.020Z,976.48
2023-12-10T01:14:11.953Z,976.53
2023-12-10T01:15:11.990Z,976.56
2023-12-10T01:16:11.926Z,976.66
2023-12-10T01:17:11.991Z,976.65
2023-12-10T01:18:12.111Z,976.68
2023-12-10T01:19:12.027Z,976.72
2023-12-10T01:20:11.909Z,976.69
2023-12-10T01:21:11.936Z,976.61
2023-12-10T01:22:11.864Z,976.69
2023-12-10T01:23:11.919Z,976.74
2023-12-10T01:24:11.913Z,976.83
2023-12-10T01:25:11.860Z,976.85
2023-12-10T01:26:11.864Z,976.84
2023-12-10T01:27:11.948Z,976.86
2023-12-10T01:28:11.783Z,976.89
2023-12-10T01:29:11.819Z,976.89
2023-12-10T01:30:12.747Z,976.91
2023-12-10T01:31:11.768Z,976.94
2023-12-10T01:32:11.780Z,976.95
2023-12-10T01:33:12.001Z,976.91
2023-12-10T01:34:11.897Z,976.87
2023-12-10T01:35:11.847Z,976.93
2023-12-10T01:36:11.757Z,976.88
2023-12-10T01:37:11.678Z,976.91
2023-12-10T01:38:11.647Z,976.96
2023-12-10T01:39:11.718Z,976.95
2023-12-10T01:40:11.679Z,976.96
2023-12-10T01:41:13.574Z,976.89
2023-12-10T01:42:11.614Z,977.01
2023-12-10T01:43:11.619Z,977.03
2023-12-10T01:44:11.621Z,977.09
2023-12-10T01:45:11.588Z,977.08
2023-12-10T01:46:11.577Z,977.02
2023-12-10T01:47:11.613Z,977.01
2023-12-10T01:48:11.679Z,977.07
2023-12-10T01:49:11.588Z,977.01
2023-12-10T01:50:11.509Z,977.04
2023-12-10T01:51:11.533Z,977.11
2023-12-10T01:52:11.470Z,977.13
2023-12-10T01:53:11.459Z,977.16
2023-12-10T01:54:11.469Z,977.25
2023-12-10T01:55:11.452Z,977.26
2023-12-10T01:56:12.130Z,977.20
2023-12-10T01:57:11.430Z,977.22
2023-12-10T01:58:11.381Z,977.19
2023-12-10T01:59:11.382Z,977.16
2023-12-10T02:00:11.482Z,977.18
2023-12-10T02:01:11.450Z,977.17
2023-12-10T02:02:11.357Z,977.19
2023-12-10T02:03:11.351Z,977.16
2023-12-10T02:04:11.442Z,977.16
2023-12-10T02:05:11.512Z,977.17
2023-12-10T02:06:11.357Z,977.12
2023-12-10T02:07:11.285Z,977.20
2023-12-10T02:08:11.312Z,977.25
2023-12-10T02:09:11.295Z,977.31
2023-12-10T02:10:11.227Z,977.36
2023-12-10T02:11:11.235Z,977.29
2023-12-10T02:12:11.273Z,977.29
2023-12-10T02:13:11.208Z,977.37
2023-12-10T02:14:11.239Z,977.35
2023-12-10T02:15:11.186Z,977.35
2023-12-10T02:16:11.166Z,977.40
2023-12-10T02:17:11.157Z,977.35
2023-12-10T02:18:11.289Z,977.36
2023-12-10T02:19:11.216Z,977.38
2023-12-10T02:20:11.130Z,977.39
2023-12-10T02:21:11.144Z,977.40
2023-12-10T02:22:11.086Z,977.36
2023-12-10T02:23:11.088Z,977.40
2023-12-10T02:24:11.110Z,977.39
2023-12-10T02:25:11.043Z,977.44
2023-12-10T02:26:11.018Z,977.45
2023-12-10T02:27:11.092Z,977.46
2023-12-10T02:28:11.004Z,977.48
2023-12-10T02:29:11.052Z,977.53
2023-12-10T02:30:11.074Z,977.58
2023-12-10T02:31:10.979Z,977.64
2023-12-10T02:32:10.971Z,977.60
2023-12-10T02:33:11.140Z,977.61
2023-12-10T02:34:11.096Z,977.57
2023-12-10T02:35:10.921Z,977.70
2023-12-10T02:36:10.958Z,977.74
2023-12-10T02:37:10.926Z,977.71
2023-12-10T02:38:10.876Z,977.64
2023-12-10T02:39:10.983Z,977.58
2023-12-10T02:40:10.858Z,977.66
2023-12-10T02:41:10.856Z,977.76
2023-12-10T02:42:10.855Z,977.73
2023-12-10T02:43:10.842Z,977.65
2023-12-10T02:44:10.802Z,977.71
2023-12-10T02:45:10.919Z,977.74
2023-12-10T02:46:10.801Z,977.78
2023-12-10T02:47:10.828Z,977.82
2023-12-10T02:48:11.039Z,977.81
2023-12-10T02:49:10.897Z,977.79
2023-12-10T02:50:10.738Z,977.93
2023-12-10T02:51:10.773Z,978.04
2023-12-10T02:52:10.707Z,977.92
2023-12-10T02:53:10.710Z,977.68
2023-12-10T02:54:10.847Z,977.74
2023-12-10T02:55:10.951Z,977.98
2023-12-10T02:56:10.648Z,978.05
2023-12-10T02:57:10.834Z,977.98
2023-12-10T02:58:10.606Z,977.88
2023-12-10T02:59:10.643Z,977.91
2023-12-10T03:00:10.598Z,977.91
2023-12-10T03:01:10.877Z,978.05
2023-12-10T03:02:10.615Z,977.94
2023-12-10T03:03:10.627Z,977.85
2023-12-10T03:04:10.651Z,977.77
2023-12-10T03:05:10.662Z,977.80
2023-12-10T03:06:10.599Z,977.83
2023-12-10T03:07:10.628Z,977.83
2023-12-10T03:08:10.509Z,977.79
2023-12-10T03:09:10.584Z,977.80
2023-12-10T03:10:10.605Z,977.74
2023-12-10T03:11:10.562Z,977.75
2023-12-10T03:12:10.447Z,977.72
2023-12-10T03:13:10.629Z,977.82
2023-12-10T03:14:13.562Z,977.73
2023-12-10T03:15:10.408Z,977.82
2023-12-10T03:16:10.406Z,977.81
2023-12-10T03:17:10.399Z,977.83
2023-12-10T03:18:10.551Z,977.86
2023-12-10T03:19:10.586Z,977.96
2023-12-10T03:20:10.442Z,977.90
2023-12-10T03:21:10.448Z,977.95
2023-12-10T03:22:10.553Z,978.01
2023-12-10T03:23:10.511Z,978.07
2023-12-10T03:24:10.496Z,977.99
2023-12-10T03:25:10.472Z,978.00
2023-12-10T03:26:10.270Z,978.01
2023-12-10T03:27:10.259Z,978.01
2023-12-10T03:28:10.385Z,977.92
2023-12-10T03:29:10.246Z,977.96
2023-12-10T03:30:10.198Z,978.05
2023-12-10T03:31:10.225Z,978.00
2023-12-10T03:32:10.155Z,978.05
2023-12-10T03:33:10.278Z,978.00
2023-12-10T03:34:10.224Z,977.93
2023-12-10T03:35:10.133Z,977.99
2023-12-10T03:36:10.117Z,978.05
2023-12-10T03:37:10.119Z,977.98
2023-12-10T03:38:10.102Z,978.04
2023-12-10T03:39:10.096Z,978.04
2023-12-10T03:40:10.103Z,978.02
2023-12-10T03:41:10.069Z,978.06
2023-12-10T03:42:10.057Z,978.14
2023-12-10T03:43:10.078Z,978.14
2023-12-10T03:44:10.017Z,978.15
2023-12-10T03:45:10.021Z,978.15
2023-12-10T03:46:10.001Z,978.16
2023-12-10T03:47:10.114Z,978.14
2023-12-10T03:48:10.128Z,978.12
2023-12-10T03:49:10.269Z,978.23
2023-12-10T03:50:10.163Z,978.27
2023-12-10T03:51:10.328Z,978.27
2023-12-10T03:52:10.497Z,978.29
2023-12-10T03:53:10.313Z,978.20
2023-12-10T03:54:10.288Z,978.28
2023-12-10T03:55:10.122Z,978.18
2023-12-10T03:56:10.206Z,978.20
2023-12-10T03:57:09.867Z,978.32
2023-12-10T03:58:09.914Z,978.32
2023-12-10T03:59:09.860Z,978.36
2023-12-10T04:00:09.810Z,978.35
2023-12-10T04:01:09.988Z,978.34
2023-12-10T04:02:09.771Z,978.36
2023-12-10T04:03:09.858Z,978.40
2023-12-10T04:04:10.231Z,978.37
2023-12-10T04:05:09.769Z,978.39
2023-12-10T04:06:09.727Z,978.46
2023-12-10T04:07:09.725Z,978.45
2023-12-10T04:08:09.711Z,978.43
2023-12-10T04:09:09.737Z,978.47
2023-12-10T04:10:09.727Z,978.46
2023-12-10T04:11:09.738Z,978.43
2023-12-10T04:12:09.681Z,978.45
2023-12-10T04:13:09.653Z,978.49
2023-12-10T04:14:09.670Z,978.50
2023-12-10T04:15:09.657Z,978.48
2023-12-10T04:16:09.636Z,978.58
2023-12-10T04:17:09.618Z,978.60
2023-12-10T04:18:09.687Z,978.60
2023-12-10T04:19:09.794Z,978.48
2023-12-10T04:20:09.628Z,978.43
2023-12-10T04:21:09.552Z,978.44
2023-12-10T04:22:09.644Z,978.56
2023-12-10T04:23:09.596Z,978.62
2023-12-10T04:24:09.554Z,978.63
2023-12-10T04:25:09.558Z,978.67
2023-12-10T04:26:09.549Z,978.64
2023-12-10T04:27:09.526Z,978.66
2023-12-10T04:28:09.486Z,978.68
2023-12-10T04:29:09.615Z,978.76
2023-12-10T04:30:09.423Z,978.79
2023-12-10T04:31:09.491Z,978.75
2023-12-10T04:32:09.477Z,978.77
2023-12-10T04:33:09.510Z,978.82
2023-12-10T04:34:09.495Z,978.76
2023-12-10T04:35:09.444Z,978.80
2023-12-10T04:36:09.365Z,978.75
2023-12-10T04:37:09.338Z,978.77
2023-12-10T04:38:09.320Z,978.76
2023-12-10T04:39:09.340Z,978.81
2023-12-10T04:40:09.323Z,978.76
2023-12-10T04:41:09.299Z,978.84
2023-12-10T04:42:09.276Z,978.77
2023-12-10T04:43:09.256Z,978.79
2023-12-10T04:44:09.255Z,978.76
2023-12-10T04:45:09.264Z,978.75
2023-12-10T04:46:09.236Z,978.76
2023-12-10T04:47:09.189Z,978.77
2023-12-10T04:48:09.294Z,978.71
2023-12-10T04:49:09.301Z,978.72
2023-12-10T04:50:09.207Z,978.68
2023-12-10T04:51:09.178Z,978.65
2023-12-10T04:52:09.156Z,978.68
2023-12-10T04:53:09.128Z,978.69
2023-12-10T04:54:09.121Z,978.74
2023-12-10T04:55:09.118Z,978.78
2023-12-10T04:56:09.101Z,978.83
2023-12-10T04:57:09.083Z,978.81
2023-12-10T04:58:09.089Z,978.84
2023-12-10T04:59:09.041Z,978.82
2023-12-10T05:00:09.030Z,978.79
2023-12-10T05:01:09.081Z,978.83
2023-12-10T05:02:09.058Z,978.89
2023-12-10T05:03:09.070Z,978.91
2023-12-10T05:04:09.058Z,978.83
2023-12-10T05:05:08.951Z,978.89
2023-12-10T05:06:09.047Z,978.83
2023-12-10T05:07:08.938Z,978.78
2023-12-10T05:08:08.971Z,978.85
2023-12-10T05:09:09.059Z,978.87
2023-12-10T05:10:08.927Z,978.96
2023-12-10T05:11:08.899Z,978.91
2023-12-10T05:12:08.925Z,978.97
2023-12-10T05:13:08.897Z,979.06
2023-12-10T05:14:08.944Z,979.01
2023-12-10T05:15:08.844Z,979.03
2023-12-10T05:16:08.835Z,979.01
2023-12-10T05:17:08.875Z,979.04
2023-12-10T05:18:08.913Z,979.03
2023-12-10T05:19:08.945Z,979.28
2023-12-10T05:20:08.821Z,979.19
2023-12-10T05:21:08.795Z,979.20
2023-12-10T05:22:08.858Z,979.26
2023-12-10T05:23:08.746Z,979.25
2023-12-10T05:24:08.799Z,979.17
2023-12-10T05:25:08.700Z,979.28
2023-12-10T05:26:09.290Z,979.30
2023-12-10T05:27:08.690Z,979.33
2023-12-10T05:28:08.689Z,979.15
2023-12-10T05:29:08.661Z,979.22
2023-12-10T05:30:08.650Z,979.27
2023-12-10T05:31:08.706Z,979.36
2023-12-10T05:32:08.713Z,979.38
2023-12-10T05:33:08.694Z,979.42
2023-12-10T05:34:08.677Z,979.40
2023-12-10T05:35:08.597Z,979.37
2023-12-10T05:36:08.581Z,979.49
2023-12-10T05:37:08.545Z,979.49
2023-12-10T05:38:08.618Z,979.56
2023-12-10T05:39:08.576Z,979.61
2023-12-10T05:40:09.134Z,979.46
2023-12-10T05:41:08.525Z,979.53
2023-12-10T05:42:08.522Z,979.50
2023-12-10T05:43:08.555Z,979.51
2023-12-10T05:44:08.525Z,979.57
2023-12-10T05:45:08.590Z,979.55
2023-12-10T05:46:08.745Z,979.57
2023-12-10T05:47:08.417Z,979.46
2023-12-10T05:48:08.475Z,979.59
2023-12-10T05:49:08.536Z,979.63
2023-12-10T05:50:08.649Z,979.69
2023-12-10T05:51:08.456Z,979.67
2023-12-10T05:52:08.376Z,979.63
2023-12-10T05:53:08.381Z,979.51
2023-12-10T05:54:08.371Z,979.58
2023-12-10T05:55:08.433Z,979.57
2023-12-10T05:56:08.340Z,979.68
2023-12-10T05:57:08.359Z,979.69
2023-12-10T05:58:08.317Z,979.60
2023-12-10T05:59:08.278Z,979.69
2023-12-10T06:00:08.275Z,979.62
2023-12-10T06:01:08.323Z,979.59
2023-12-10T06:02:08.310Z,979.71
2023-12-10T06:03:08.228Z,979.70
2023-12-10T06:04:08.303Z,979.77
2023-12-10T06:05:11.539Z,979.86
2023-12-10T06:06:08.372Z,979.84
2023-12-10T06:07:08.236Z,979.83
2023-12-10T06:08:08.168Z,979.85
2023-12-10T06:09:08.186Z,979.95
2023-12-10T06:10:08.238Z,979.97
2023-12-10T06:11:08.129Z,979.96
2023-12-10T06:12:08.168Z,980.04
2023-12-10T06:13:08.101Z,979.93
2023-12-10T06:14:08.086Z,980.01
2023-12-10T06:15:08.096Z,980.04
2023-12-10T06:16:08.043Z,979.93
2023-12-10T06:17:08.048Z,979.94
2023-12-10T06:18:08.096Z,980.07
2023-12-10T06:19:08.121Z,980.20
2023-12-10T06:20:08.022Z,980.06
2023-12-10T06:21:07.987Z,980.06
2023-12-10T06:22:07.977Z,979.98
2023-12-10T06:23:07.961Z,980.01
2023-12-10T06:24:07.972Z,980.17
2023-12-10T06:25:07.990Z,980.18
2023-12-10T06:26:07.934Z,980.15
2023-12-10T06:27:07.920Z,980.11
2023-12-10T06:28:07.918Z,980.16
2023-12-10T06:29:07.878Z,980.19
2023-12-10T06:30:07.894Z,980.38
2023-12-10T06:31:07.882Z,980.34
2023-12-10T06:32:07.847Z,980.43
2023-12-10T06:33:07.931Z,980.44
2023-12-10T06:34:07.961Z,980.43
2023-12-10T06:35:07.798Z,980.48
2023-12-10T06:36:07.824Z,980.47
2023-12-10T06:37:07.791Z,980.49
2023-12-10T06:38:07.795Z,980.52
2023-12-10T06:39:07.774Z,980.52
2023-12-10T06:40:07.749Z,980.50
2023-12-10T06:41:07.760Z,980.43
2023-12-10T06:42:07.757Z,980.43
2023-12-10T06:43:07.837Z,980.60
2023-12-10T06:44:07.698Z,980.51
2023-12-10T06:45:07.699Z,980.58
2023-12-10T06:46:07.691Z,980.60
2023-12-10T06:47:07.651Z,980.52
2023-12-10T06:48:07.816Z,980.48
2023-12-10T06:49:07.720Z,980.46
2023-12-10T06:50:07.621Z,980.52
2023-12-10T06:51:07.625Z,980.61
2023-12-10T06:52:07.618Z,980.65
2023-12-10T06:53:07.597Z,980.58
2023-12-10T06:54:07.624Z,980.75
2023-12-10T06:55:07.580Z,980.63
2023-12-10T06:56:07.554Z,980.74
2023-12-10T06:57:07.531Z,980.76
2023-12-10T06:58:07.582Z,980.79
2023-12-10T06:59:07.517Z,980.82
2023-12-10T07:00:07.690Z,980.71
2023-12-10T07:01:07.561Z,980.74
2023-12-10T07:02:07.529Z,980.71
2023-12-10T07:03:07.506Z,980.76
2023-12-10T07:04:07.641Z,980.81
2023-12-10T07:05:07.467Z,980.86
2023-12-10T07:06:07.452Z,980.84
2023-12-10T07:07:07.455Z,980.90
2023-12-10T07:08:07.466Z,980.83
2023-12-10T07:09:07.380Z,980.87
2023-12-10T07:10:07.462Z,980.85
2023-12-10T07:11:07.414Z,980.85
2023-12-10T07:12:07.422Z,980.92
2023-12-10T07:13:07.328Z,980.96
2023-12-10T07:14:07.312Z,980.94
2023-12-10T07:15:07.335Z,980.94
2023-12-10T07:16:07.381Z,980.97
2023-12-10T07:17:07.316Z,981.10
2023-12-10T07:18:07.482Z,981.14
2023-12-10T07:19:07.422Z,981.20
2023-12-10T07:20:07.353Z,981.13
2023-12-10T07:21:07.267Z,981.25
2023-12-10T07:22:07.256Z,981.25
2023-12-10T07:23:07.229Z,981.19
2023-12-10T07:24:07.355Z,981.27
2023-12-10T07:25:07.196Z,981.18
2023-12-10T07:26:07.177Z,981.24
2023-12-10T07:27:07.151Z,981.28
2023-12-10T07:28:07.135Z,981.33
2023-12-10T07:29:07.124Z,981.41
2023-12-10T07:30:07.223Z,981.32
2023-12-10T07:31:07.098Z,981.47
2023-12-10T07:32:07.088Z,981.35
2023-12-10T07:33:07.173Z,981.46
2023-12-10T07:34:07.194Z,981.61
2023-12-10T07:35:07.088Z,981.63
2023-12-10T07:36:07.026Z,981.62
2023-12-10T07:37:07.059Z,981.68
2023-12-10T07:38:07.007Z,981.62
2023-12-10T07:39:07.006Z,981.64
2023-12-10T07:40:06.983Z,981.57
2023-12-10T07:41:07.055Z,981.55
2023-12-10T07:42:06.975Z,981.57
2023-12-10T07:43:07.062Z,981.47
2023-12-10T07:44:06.953Z,981.45
2023-12-10T07:45:06.895Z,981.46
2023-12-10T07:46:06.977Z,981.47
2023-12-10T07:47:09.374Z,981.47
2023-12-10T07:48:06.949Z,981.46
2023-12-10T07:49:06.936Z,981.49
2023-12-10T07:50:06.884Z,981.41
2023-12-10T07:51:06.852Z,981.56
2023-12-10T07:52:06.825Z,981.50
2023-12-10T07:53:06.842Z,981.57
2023-12-10T07:54:06.805Z,981.57
2023-12-10T07:55:06.789Z,981.52
2023-12-10T07:56:06.808Z,981.55
2023-12-10T07:57:06.775Z,981.47
2023-12-10T07:58:06.888Z,981.52
2023-12-10T07:59:06.764Z,981.53
2023-12-10T08:00:06.943Z,981.53
2023-12-10T08:01:06.748Z,981.47
2023-12-10T08:02:06.743Z,981.53
2023-12-10T08:03:06.726Z,981.59
2023-12-10T08:04:06.737Z,981.55
2023-12-10T08:05:06.724Z,981.59
2023-12-10T08:06:06.679Z,981.65
2023-12-10T08:07:06.636Z,981.57
2023-12-10T08:08:06.632Z,981.61
2023-12-10T08:09:06.592Z,981.55
2023-12-10T08:10:06.655Z,981.69
2023-12-10T08:11:06.606Z,981.67
2023-12-10T08:12:06.560Z,981.71
2023-12-10T08:13:06.567Z,981.78
2023-12-10T08:14:06.561Z,981.90
2023-12-10T08:15:06.583Z,981.80
2023-12-10T08:16:06.556Z,981.87
2023-12-10T08:17:06.609Z,981.88
2023-12-10T08:18:06.646Z,981.98
2023-12-10T08:19:06.613Z,981.99
2023-12-10T08:20:06.511Z,981.90
2023-12-10T08:21:06.470Z,981.98
2023-12-10T08:22:06.489Z,981.96
2023-12-10T08:23:06.424Z,981.90
2023-12-10T08:24:06.418Z,982.02
2023-12-10T08:25:06.431Z,981.95
2023-12-10T08:26:06.377Z,981.92
2023-12-10T08:27:06.416Z,982.04
2023-12-10T08:28:06.467Z,982.01
2023-12-10T08:29:06.341Z,982.04
2023-12-10T08:30:06.330Z,982.01
2023-12-10T08:31:06.312Z,982.07
2023-12-10T08:32:06.301Z,982.06
2023-12-10T08:33:06.349Z,982.03
2023-12-10T08:34:06.344Z,982.11
2023-12-10T08:35:06.318Z,982.28
2023-12-10T08:36:06.256Z,982.33
2023-12-10T08:37:06.225Z,982.26
2023-12-10T08:38:06.234Z,982.26
2023-12-10T08:39:06.203Z,982.31
2023-12-10T08:40:06.235Z,982.27
2023-12-10T08:41:06.214Z,982.27
2023-12-10T08:42:06.174Z,982.24
2023-12-10T08:43:06.197Z,982.32
2023-12-10T08:44:06.171Z,982.30
2023-12-10T08:45:06.177Z,982.34
2023-12-10T08:46:06.213Z,982.27
2023-12-10T08:47:06.093Z,982.30
2023-12-10T08:48:06.134Z,982.28
2023-12-10T08:49:06.317Z,982.40
2023-12-10T08:50:06.085Z,982.40
2023-12-10T08:51:06.050Z,982.42
2023-12-10T08:52:06.061Z,982.42
2023-12-10T08:53:06.074Z,982.44
2023-12-10T08:54:06.046Z,982.55
2023-12-10T08:55:06.123Z,982.55
2023-12-10T08:56:06.007Z,982.54
2023-12-10T08:57:05.983Z,982.55
2023-12-10T08:58:05.959Z,982.59
2023-12-10T08:59:05.976Z,982.62
2023-12-10T09:00:06.047Z,982.62
2023-12-10T09:01:06.033Z,982.70
2023-12-10T09:02:05.922Z,982.71
2023-12-10T09:03:05.979Z,982.70
2023-12-10T09:04:06.067Z,982.86
2023-12-10T09:05:06.011Z,982.81
2023-12-10T09:06:05.871Z,982.88
2023-12-10T09:07:05.877Z,982.83
2023-12-10T09:08:05.834Z,982.92
2023-12-10T09:09:05.811Z,982.87
2023-12-10T09:10:11.537Z,982.94
2023-12-10T09:11:05.942Z,982.91
2023-12-10T09:12:05.819Z,982.95
2023-12-10T09:13:05.881Z,982.95
2023-12-10T09:14:05.804Z,982.86
2023-12-10T09:15:05.794Z,982.86
2023-12-10T09:16:05.754Z,982.81
2023-12-10T09:17:05.722Z,982.76
2023-12-10T09:18:05.847Z,982.76
2023-12-10T09:19:05.928Z,982.87
2023-12-10T09:20:05.677Z,982.92
2023-12-10T09:21:05.709Z,982.84
2023-12-10T09:22:05.655Z,982.84
2023-12-10T09:23:05.656Z,982.92
2023-12-10T09:24:05.653Z,982.96
2023-12-10T09:25:05.669Z,983.05
2023-12-10T09:26:05.601Z,982.96
2023-12-10T09:27:05.619Z,982.96
2023-12-10T09:28:07.774Z,982.97
2023-12-10T09:29:05.553Z,983.02
2023-12-10T09:30:05.584Z,983.04
2023-12-10T09:31:05.545Z,983.07
2023-12-10T09:32:05.585Z,983.08
2023-12-10T09:33:05.544Z,983.00
2023-12-10T09:34:05.557Z,983.01
2023-12-10T09:35:05.607Z,983.04
2023-12-10T09:36:05.469Z,982.94
2023-12-10T09:37:05.461Z,983.03
2023-12-10T09:38:05.453Z,982.92
2023-12-10T09:39:05.509Z,982.86
2023-12-10T09:40:05.505Z,982.88
2023-12-10T09:41:05.457Z,982.84
2023-12-10T09:42:05.394Z,982.86
2023-12-10T09:43:05.424Z,982.79
2023-12-10T09:44:05.392Z,982.84
2023-12-10T09:45:05.364Z,982.78
2023-12-10T09:46:05.393Z,982.92
2023-12-10T09:47:05.327Z,982.80
2023-12-10T09:48:05.466Z,982.83
2023-12-10T09:49:05.567Z,982.78
2023-12-10T09:50:05.289Z,982.86
2023-12-10T09:51:05.282Z,982.85
2023-12-10T09:52:05.342Z,982.84
2023-12-10T09:53:05.258Z,982.89
2023-12-10T09:54:05.226Z,982.80
2023-12-10T09:55:05.390Z,982.88
2023-12-10T09:56:05.211Z,982.87
2023-12-10T09:57:05.222Z,982.83
2023-12-10T09:58:05.244Z,982.92
2023-12-10T09:59:05.173Z,982.86
2023-12-10T10:00:05.141Z,982.95
2023-12-10T10:01:05.213Z,982.84
2023-12-10T10:02:05.131Z,982.99
2023-12-10T10:03:05.199Z,982.91
2023-12-10T10:04:05.380Z,982.96
2023-12-10T10:05:05.146Z,982.91
2023-12-10T10:06:05.081Z,982.99
2023-12-10T10:07:05.112Z,982.99
2023-12-10T10:08:05.042Z,982.96
2023-12-10T10:09:05.035Z,982.96
2023-12-10T10:10:05.078Z,983.00
2023-12-10T10:11:05.020Z,983.02
2023-12-10T10:12:04.990Z,982.94
2023-12-10T10:13:05.275Z,983.00
2023-12-10T10:14:04.956Z,983.02
2023-12-10T10:15:04.961Z,982.97
2023-12-10T10:16:04.994Z,983.01
2023-12-10T10:17:04.935Z,983.02
2023-12-10T10:18:05.073Z,983.02
2023-12-10T10:19:05.678Z,982.89
2023-12-10T10:20:04.934Z,982.96
2023-12-10T10:21:04.911Z,982.91
2023-12-10T10:22:04.874Z,982.88
2023-12-10T10:23:04.881Z,982.93
2023-12-10T10:24:04.830Z,982.97
2023-12-10T10:25:05.088Z,982.96
2023-12-10T10:26:04.826Z,982.90
2023-12-10T10:27:04.823Z,983.01
2023-12-10T10:28:04.926Z,982.90
2023-12-10T10:29:04.791Z,982.93
2023-12-10T10:30:04.991Z,982.89
2023-12-10T10:31:04.845Z,982.96
2023-12-10T10:32:04.739Z,982.89
2023-12-10T10:33:04.829Z,982.90
2023-12-10T10:34:04.749Z,982.94
2023-12-10T10:35:04.700Z,982.97
2023-12-10T10:36:04.687Z,982.91
2023-12-10T10:37:04.750Z,982.92
2023-12-10T10:38:04.665Z,982.94
2023-12-10T10:39:04.692Z,983.02
2023-12-10T10:40:04.813Z,983.05
2023-12-10T10:41:04.648Z,982.99
2023-12-10T10:42:04.602Z,983.00
2023-12-10T10:43:04.653Z,982.96
2023-12-10T10:44:04.620Z,983.01
2023-12-10T10:45:04.608Z,983.10
2023-12-10T10:46:05.606Z,983.09
2023-12-10T10:47:04.550Z,983.18
2023-12-10T10:48:04.838Z,983.25
2023-12-10T10:49:04.652Z,983.27
2023-12-10T10:50:20.963Z,983.28
2023-12-10T10:51:04.524Z,983.24
2023-12-10T10:52:04.494Z,983.12
2023-12-10T10:53:04.486Z,983.13
2023-12-10T10:54:04.460Z,983.14
2023-12-10T10:55:04.529Z,983.13
2023-12-10T10:56:04.495Z,983.11
2023-12-10T10:57:04.503Z,983.17
2023-12-10T10:58:04.530Z,983.08
2023-12-10T10:59:04.412Z,983.18
2023-12-10T11:00:06.058Z,983.13
2023-12-10T11:01:04.435Z,983.18
2023-12-10T11:02:04.364Z,983.18
2023-12-10T11:03:04.336Z,983.15
2023-12-10T11:04:04.526Z,983.19
2023-12-10T11:05:04.328Z,983.15
2023-12-10T11:06:06.657Z,983.14
2023-12-10T11:07:04.443Z,983.10
2023-12-10T11:08:04.300Z,983.10
2023-12-10T11:09:04.289Z,983.16
2023-12-10T11:10:04.263Z,983.14
2023-12-10T11:11:04.231Z,983.11
2023-12-10T11:12:04.241Z,983.10
2023-12-10T11:13:04.888Z,983.11
2023-12-10T11:14:04.214Z,983.15
2023-12-10T11:15:04.208Z,983.24
2023-12-10T11:16:04.212Z,983.26
2023-12-10T11:17:04.161Z,983.21
2023-12-10T11:18:04.400Z,983.24
2023-12-10T11:19:04.327Z,983.24
2023-12-10T11:20:04.123Z,983.23
2023-12-10T11:21:04.092Z,983.18
2023-12-10T11:22:04.177Z,983.20
2023-12-10T11:23:04.073Z,983.27
2023-12-10T11:24:04.052Z,983.21
2023-12-10T11:25:04.058Z,983.36
2023-12-10T11:26:04.017Z,983.30
2023-12-10T11:27:04.057Z,983.31
2023-12-10T11:28:04.060Z,983.31
2023-12-10T11:29:04.000Z,983.24
2023-12-10T11:30:03.961Z,983.27
2023-12-10T11:31:04.052Z,983.20
2023-12-10T11:32:03.972Z,983.15
2023-12-10T11:33:04.721Z,983.18
2023-12-10T11:34:03.941Z,983.22
2023-12-10T11:35:03.967Z,983.26
2023-12-10T11:36:32.814Z,983.30
2023-12-10T11:37:03.975Z,983.30
2023-12-10T11:38:03.965Z,983.34
2023-12-10T11:39:03.950Z,983.31
2023-12-10T11:40:04.070Z,983.27
2023-12-10T11:41:05.448Z,983.32
2023-12-10T11:42:06.772Z,983.27
2023-12-10T11:43:05.022Z,983.26
2023-12-10T11:44:04.031Z,983.20
2023-12-10T11:45:03.797Z,983.27
2023-12-10T11:46:03.763Z,983.25
2023-12-10T11:47:03.755Z,983.28
2023-12-10T11:48:03.859Z,983.22
2023-12-10T11:49:03.816Z,983.23
2023-12-10T11:50:03.711Z,983.18
2023-12-10T11:51:03.748Z,983.23
2023-12-10T11:52:05.412Z,983.32
2023-12-10T11:53:03.733Z,983.36
2023-12-10T11:54:03.652Z,983.26
2023-12-10T11:55:03.736Z,983.23
2023-12-10T11:56:03.654Z,983.27
2023-12-10T11:57:03.669Z,983.29
2023-12-10T11:58:03.658Z,983.28
2023-12-10T11:59:03.593Z,983.28
2023-12-10T12:00:03.601Z,983.28
2023-12-10T12:01:03.748Z,983.29
2023-12-10T12:02:03.580Z,983.36
2023-12-10T12:03:03.586Z,983.38
2023-12-10T12:04:04.037Z,983.40
2023-12-10T12:05:03.847Z,983.35
2023-12-10T12:06:03.944Z,983.46
2023-12-10T12:07:04.630Z,983.38
2023-12-10T12:08:04.054Z,983.34
2023-12-10T12:09:03.875Z,983.34
2023-12-10T12:10:03.820Z,983.34
2023-12-10T12:11:03.955Z,983.40
2023-12-10T12:12:04.002Z,983.44
2023-12-10T12:13:03.493Z,983.50
2023-12-10T12:14:03.413Z,983.49
2023-12-10T12:15:03.460Z,983.41
2023-12-10T12:16:03.381Z,983.54
2023-12-10T12:17:03.352Z,983.50
2023-12-10T12:18:03.700Z,983.55
2023-12-10T12:19:03.390Z,983.50
2023-12-10T12:20:03.345Z,983.57
2023-12-10T12:21:03.365Z,983.60
2023-12-10T12:22:03.402Z,983.61
2023-12-10T12:23:03.366Z,983.64
2023-12-10T12:24:03.313Z,983.57
2023-12-10T12:25:03.347Z,983.64
2023-12-10T12:26:03.239Z,983.63
2023-12-10T12:27:03.263Z,983.61
2023-12-10T12:28:03.339Z,983.60